Weather at Aktobe Airport

Public forecast

Using degrees Celsius for public forecast. Weather courtesy of forecast.io.

Current aviation weather report (METAR) for Aktobe Airport

Report is more than 6 hours old.

2022/11/14 15:30 (retrieved 2 years ago)

UATT 141530Z 33009MPS 2300 SHSNRA SCT007 BKN021CB 00/M01 Q0994 TEMPO 0800 +SHSNRA BKN005 BKN011CB RMK QFE725/0967

Aviation forecast (TAF) for Aktobe Airport

Forecast is more than 12 hours old.

2023/02/22 18:22 (retrieved 1 year ago)

TAF UATT 221701Z 2218/2318 23009MPS 3100 -SHSN BLSN OVC005 BKN015CB TXM02/2219Z TNM13/2317Z TEMPO 2218/2220 24014MPS 1500 BLSN TEMPO 2220/2306 0800 FZFG VV002 TEMPO 2306/2318 24015MPS 0700 BLSN